Logan Peak - 24 Hour Table
Date & TimeSolar
Radiation
(W/m²)
Wind
Speed
(mph)
Wind
Direction
(degrees)
Air
Temperature
(°F)
Relative
Humidity
(%)
Barometeric
Pressure
(inHg)
Max
Wind
Speed
(mph)
2021/06/14 04:00 0 25.1 189 61.5 9 30.03 34.2
2021/06/14 03:00 0 22.6 171 62.7 11 30.03 34.0
2021/06/14 02:00 0 25.5 156 64.0 13 30.03 35.1
2021/06/14 01:00 0 21.2 152 65.1 14 30.02 31.3
2021/06/14 00:00 0 19.1 153 66.0 13 30.03 28.0
2021/06/13 23:00 0 10.1 171 66.3 13 30.03 17.2
2021/06/13 22:00 0 7.6 190 66.2 14 30.04 9.4
2021/06/13 21:00 0 9.3 184 67.2 14 30.03 11.0
2021/06/13 20:00 58 6.4 177 69.6 14 30.02 11.2
2021/06/13 19:00 193 4.6 247 69.8 14 30.02 10.7
2021/06/13 18:00 312 7.4 198 70.4 18 30.02 18.1
2021/06/13 17:00 518 6.6 233 71.6 15 30.03 16.1
2021/06/13 16:00 698 12.1 212 71.4 15 30.03 28.6
2021/06/13 15:00 867 11.6 213 71.4 14 30.04 27.3
2021/06/13 14:00 943 13.3 160 70.2 19 30.04 31.1
2021/06/13 13:00 970 12.4 109 68.7 14 30.04 27.5
2021/06/13 12:00 951 15.3 82 66.3 23 30.05 26.6
2021/06/13 11:00 886 13.7 90 64.4 24 30.06 24.6
2021/06/13 10:00 771 15.8 92 62.0 25 30.06 28.4
2021/06/13 09:00 619 17.9 97 60.5 21 30.04 27.5
2021/06/13 08:00 404 19.5 96 59.1 20 30.04 24.8
2021/06/13 07:00 218 19.5 103 58.8 21 30.04 23.0
2021/06/13 06:00 82 18.0 106 57.8 18 30.03 21.9
2021/06/13 05:00 2 13.6 105 56.6 20 30.03 19.9